Time;durP1;ratioP1;P1;durP2;ratioP2;P2;SDS_P1;SDS_P2;PMS_P1;PMS_P2;Temp;Humidity;BMP_temperature;BMP_pressure;BME280_temperature;BME280_humidity;BME280_pressure;Samples;Min_cycle;Max_cycle;Signal;HPM_P1;HPM_P2
2023/10/23 00:01:38;;;;;;;6.38;2.60;;;9.50;99.90;;;;;;5008366;28;20026;-75
2023/10/23 00:04:04;;;;;;;6.07;2.70;;;9.60;99.90;;;;;;5029590;28;20384;-73
2023/10/23 00:06:30;;;;;;;4.70;2.28;;;9.70;99.90;;;;;;5008275;28;20060;-73
2023/10/23 00:08:55;;;;;;;5.78;2.30;;;9.70;99.90;;;;;;5010985;28;20053;-74
2023/10/23 00:11:28;;;;;;;6.28;2.50;;;9.70;99.90;;;;;;5012909;28;20040;-75
2023/10/23 00:13:55;;;;;;;4.85;2.22;;;9.70;99.90;;;;;;5030993;28;20187;-73
2023/10/23 00:16:21;;;;;;;5.03;2.30;;;9.80;99.90;;;;;;5031230;28;20032;-73
2023/10/23 00:18:48;;;;;;;5.28;2.45;;;9.80;99.90;;;;;;5012729;28;20087;-75
2023/10/23 00:21:14;;;;;;;6.43;1.63;;;9.80;99.90;;;;;;5023216;28;20037;-74
2023/10/23 00:23:39;;;;;;;4.78;2.65;;;9.90;99.90;;;;;;5021775;28;20104;-73
2023/10/23 00:26:05;;;;;;;3.67;2.17;;;9.80;99.90;;;;;;5013416;28;20052;-73
2023/10/23 00:28:32;;;;;;;6.57;2.05;;;9.80;99.90;;;;;;5011992;28;20049;-75
2023/10/23 00:30:58;;;;;;;6.72;2.17;;;9.80;99.90;;;;;;5012595;28;20056;-74
2023/10/23 00:33:24;;;;;;;6.75;2.38;;;9.80;99.90;;;;;;5012196;28;20037;-74
2023/10/23 00:35:50;;;;;;;4.30;2.20;;;9.70;99.90;;;;;;5015876;28;20033;-73
2023/10/23 00:38:15;;;;;;;6.40;2.45;;;9.70;99.90;;;;;;5012760;28;20055;-74
2023/10/23 00:40:41;;;;;;;5.90;3.05;;;9.70;99.90;;;;;;5029585;28;20045;-75
2023/10/23 00:43:22;;;;;;;4.63;2.50;;;9.60;99.90;;;;;;5012588;28;20064;-74
2023/10/23 00:46:00;;;;;;;4.45;1.92;;;9.50;99.90;;;;;;5011912;28;20068;-73
2023/10/23 00:48:27;;;;;;;3.97;2.00;;;9.50;99.90;;;;;;5029338;28;20037;-73
2023/10/23 00:50:58;;;;;;;9.68;2.78;;;9.50;99.90;;;;;;5036609;28;20487;-73
2023/10/23 00:53:25;;;;;;;8.75;2.70;;;9.40;99.90;;;;;;5016297;28;20072;-76
2023/10/23 00:55:53;;;;;;;7.93;2.70;;;9.40;99.90;;;;;;5020354;28;20025;-74
2023/10/23 00:58:19;;;;;;;4.68;2.42;;;9.40;99.90;;;;;;5012500;28;20030;-74
2023/10/23 01:00:47;;;;;;;6.28;2.38;;;9.30;99.90;;;;;;5020536;28;20079;-73
2023/10/23 01:03:12;;;;;;;5.75;2.67;;;9.30;99.90;;;;;;5019842;28;20035;-73
2023/10/23 01:05:38;;;;;;;9.70;3.08;;;9.30;99.90;;;;;;5011025;28;20136;-74
2023/10/23 01:08:05;;;;;;;5.72;2.70;;;9.30;99.90;;;;;;5012586;28;20083;-73
2023/10/23 01:10:31;;;;;;;5.03;2.40;;;9.30;99.90;;;;;;5032645;28;20079;-75
2023/10/23 01:12:57;;;;;;;8.82;2.40;;;9.20;99.90;;;;;;5012031;28;20042;-77
2023/10/23 01:15:23;;;;;;;5.15;2.67;;;9.20;99.90;;;;;;5032239;28;20044;-76
2023/10/23 01:17:49;;;;;;;3.63;2.05;;;9.10;99.90;;;;;;5015614;28;20379;-74
2023/10/23 01:20:16;;;;;;;7.00;2.47;;;9.00;99.90;;;;;;5028950;28;20087;-75
2023/10/23 01:22:42;;;;;;;9.75;3.33;;;9.00;99.90;;;;;;5028818;28;20030;-75
2023/10/23 01:25:16;;;;;;;3.88;2.20;;;8.90;99.90;;;;;;5011714;28;20040;-74
2023/10/23 01:27:44;;;;;;;4.13;2.80;;;8.90;99.90;;;;;;5010864;28;20384;-75
2023/10/23 01:30:10;;;;;;;5.88;2.88;;;8.90;99.90;;;;;;5011099;28;20072;-76
2023/10/23 01:32:36;;;;;;;3.72;2.33;;;8.90;99.90;;;;;;5010298;28;20068;-75
2023/10/23 01:35:03;;;;;;;5.53;2.15;;;8.80;99.90;;;;;;5011478;28;20099;-75
2023/10/23 01:37:28;;;;;;;4.72;2.42;;;8.80;99.90;;;;;;5032811;28;20104;-75
2023/10/23 01:39:54;;;;;;;4.70;2.10;;;8.70;99.90;;;;;;5010973;28;20376;-74
2023/10/23 01:42:19;;;;;;;5.63;2.53;;;8.70;99.90;;;;;;5011234;28;20065;-75
2023/10/23 01:44:45;;;;;;;4.38;2.72;;;8.70;99.90;;;;;;5009868;28;20037;-74
2023/10/23 01:47:11;;;;;;;5.43;3.08;;;8.70;99.90;;;;;;5011608;28;20030;-75
2023/10/23 01:49:37;;;;;;;4.50;2.75;;;8.70;99.90;;;;;;5001698;28;20128;-75
2023/10/23 01:52:02;;;;;;;8.13;2.85;;;8.70;99.90;;;;;;5010987;28;20030;-76
2023/10/23 01:54:28;;;;;;;6.60;2.92;;;8.60;99.90;;;;;;5027496;28;20436;-75
2023/10/23 01:56:54;;;;;;;6.07;2.97;;;8.60;99.90;;;;;;5028459;28;20025;-75
2023/10/23 01:59:19;;;;;;;5.57;2.78;;;8.60;99.90;;;;;;5028778;28;20072;-75
2023/10/23 02:01:45;;;;;;;15.35;3.25;;;8.60;99.90;;;;;;5033681;28;20033;-75
2023/10/23 02:04:10;;;;;;;6.80;3.10;;;8.60;99.90;;;;;;5014288;28;20116;-73
2023/10/23 02:06:36;;;;;;;13.27;4.07;;;8.60;99.90;;;;;;5010157;28;20525;-74
2023/10/23 02:09:02;;;;;;;12.65;3.72;;;8.70;99.90;;;;;;5011058;28;20063;-75
2023/10/23 02:11:28;;;;;;;7.28;3.58;;;8.80;99.90;;;;;;5013204;28;20108;-74
2023/10/23 02:13:54;;;;;;;9.05;4.20;;;8.80;99.90;;;;;;5028061;28;20791;-74
2023/10/23 02:16:19;;;;;;;6.95;3.97;;;8.80;99.90;;;;;;5010855;28;20028;-75
2023/10/23 02:18:45;;;;;;;9.43;3.85;;;8.90;99.90;;;;;;5010338;28;20025;-74
2023/10/23 02:21:11;;;;;;;5.70;3.38;;;8.80;99.90;;;;;;5014512;28;20037;-73
2023/10/23 02:23:36;;;;;;;6.85;3.03;;;8.80;99.90;;;;;;5032130;28;20113;-74
2023/10/23 02:26:02;;;;;;;7.22;3.47;;;8.70;99.90;;;;;;5028466;28;20048;-76
2023/10/23 02:28:28;;;;;;;5.60;3.08;;;8.70;99.90;;;;;;5009338;28;20049;-74
2023/10/23 02:30:54;;;;;;;5.05;2.88;;;8.70;99.90;;;;;;5008437;28;20045;-74
2023/10/23 02:33:20;;;;;;;6.07;3.33;;;8.60;99.90;;;;;;5009711;28;20124;-74
2023/10/23 02:35:45;;;;;;;8.00;3.38;;;8.60;99.90;;;;;;5026220;28;20390;-74
2023/10/23 02:38:12;;;;;;;6.57;2.85;;;8.60;99.90;;;;;;5010385;28;20490;-74
2023/10/23 02:40:38;;;;;;;6.03;3.20;;;8.50;99.90;;;;;;5026803;28;20120;-75
2023/10/23 02:43:03;;;;;;;10.45;3.63;;;8.50;99.90;;;;;;5033364;28;20029;-75
2023/10/23 02:45:31;;;;;;;6.30;3.30;;;8.50;99.90;;;;;;5008891;28;20030;-74
2023/10/23 02:47:57;;;;;;;8.43;3.80;;;8.50;99.90;;;;;;5009634;28;20026;-77
2023/10/23 02:50:22;;;;;;;6.85;3.67;;;8.40;99.90;;;;;;5009482;28;20040;-74
2023/10/23 02:52:48;;;;;;;6.95;3.10;;;8.40;99.90;;;;;;5010654;28;20125;-74
2023/10/23 02:55:14;;;;;;;9.55;4.10;;;8.40;99.90;;;;;;5027561;28;20026;-75
2023/10/23 02:57:40;;;;;;;7.28;3.58;;;8.40;99.90;;;;;;5026352;28;20037;-75
2023/10/23 03:00:06;;;;;;;6.00;3.20;;;8.40;99.90;;;;;;5009662;28;20084;-75
2023/10/23 03:02:33;;;;;;;6.93;3.55;;;8.30;99.90;;;;;;5008258;28;20632;-74
2023/10/23 03:04:59;;;;;;;8.73;3.42;;;8.30;99.90;;;;;;5010256;28;20041;-75
2023/10/23 03:07:24;;;;;;;7.40;3.25;;;8.20;99.90;;;;;;5014567;28;20347;-75
2023/10/23 03:09:50;;;;;;;7.13;3.65;;;8.20;99.90;;;;;;5009036;28;20045;-76
2023/10/23 03:12:16;;;;;;;7.13;3.22;;;8.20;99.90;;;;;;5007019;28;20129;-75
2023/10/23 03:14:41;;;;;;;6.05;3.20;;;8.20;99.90;;;;;;5004871;28;20045;-75
2023/10/23 03:17:07;;;;;;;6.60;3.42;;;8.20;99.90;;;;;;5028891;28;20105;-74
2023/10/23 03:19:33;;;;;;;6.70;3.65;;;8.20;99.90;;;;;;5030834;28;20494;-74
2023/10/23 03:21:58;;;;;;;8.23;3.75;;;8.10;99.90;;;;;;5027016;28;20044;-74
2023/10/23 03:24:24;;;;;;;6.63;3.38;;;8.10;99.90;;;;;;5011133;28;20060;-74
2023/10/23 03:26:49;;;;;;;6.38;3.30;;;8.10;99.90;;;;;;5015723;28;20082;-75
2023/10/23 03:29:15;;;;;;;5.53;3.13;;;8.10;99.90;;;;;;5029798;28;20040;-76
2023/10/23 03:31:41;;;;;;;3.88;2.60;;;8.10;99.90;;;;;;5011174;28;20036;-76
2023/10/23 03:34:06;;;;;;;7.43;3.25;;;8.00;99.90;;;;;;5033584;28;20716;-75
2023/10/23 03:36:33;;;;;;;6.75;2.95;;;8.00;99.90;;;;;;5017548;28;20383;-75
2023/10/23 03:38:58;;;;;;;8.57;3.63;;;8.00;99.90;;;;;;5013171;28;20095;-77
2023/10/23 03:41:25;;;;;;;5.75;3.03;;;7.90;99.90;;;;;;5008843;28;20045;-75
2023/10/23 03:43:51;;;;;;;5.07;2.80;;;7.90;99.90;;;;;;5040197;28;20025;-74
2023/10/23 03:46:16;;;;;;;7.55;3.20;;;7.90;99.90;;;;;;5013448;28;20045;-74
2023/10/23 03:48:42;;;;;;;5.13;3.00;;;7.80;99.90;;;;;;5012443;28;20821;-74
2023/10/23 03:51:07;;;;;;;6.65;3.17;;;7.90;99.90;;;;;;5034062;28;20041;-74
2023/10/23 03:53:33;;;;;;;8.35;4.20;;;7.90;99.90;;;;;;5011933;28;20041;-75
2023/10/23 03:55:59;;;;;;;8.13;4.78;;;8.00;99.90;;;;;;5020076;28;20387;-75
2023/10/23 03:58:24;;;;;;;11.43;4.90;;;8.10;99.90;;;;;;5012697;28;20057;-75
2023/10/23 04:00:53;;;;;;;13.20;5.90;;;8.30;99.90;;;;;;5012763;28;20602;-74
2023/10/23 04:03:19;;;;;;;12.48;5.40;;;8.40;99.90;;;;;;5030697;28;20490;-76
2023/10/23 04:05:44;;;;;;;13.80;6.05;;;8.60;99.90;;;;;;5029761;28;20029;-74
2023/10/23 04:08:10;;;;;;;18.25;6.60;;;8.70;99.90;;;;;;5030616;28;20026;-75
2023/10/23 04:10:35;;;;;;;17.10;6.35;;;8.90;99.90;;;;;;5012034;28;20026;-74
2023/10/23 04:13:01;;;;;;;20.25;7.70;;;9.00;99.90;;;;;;5030120;28;20025;-74
2023/10/23 04:15:27;;;;;;;18.17;6.78;;;9.00;99.90;;;;;;5016674;28;20721;-74
2023/10/23 04:17:53;;;;;;;18.42;6.95;;;9.10;99.90;;;;;;5015329;28;20033;-74
2023/10/23 04:20:18;;;;;;;15.68;5.88;;;9.20;99.90;;;;;;5030636;28;20091;-76
2023/10/23 04:22:44;;;;;;;17.55;6.10;;;9.20;99.90;;;;;;5011077;28;20067;-74
2023/10/23 04:25:10;;;;;;;22.25;6.78;;;9.30;99.90;;;;;;5038166;28;20053;-74
2023/10/23 04:27:35;;;;;;;16.08;6.10;;;9.30;99.90;;;;;;5011590;28;20044;-74
2023/10/23 04:30:04;;;;;;;20.33;6.70;;;9.30;99.90;;;;;;5010189;28;20038;-75
2023/10/23 04:32:29;;;;;;;24.73;7.55;;;9.40;99.90;;;;;;5036588;28;20038;-74
2023/10/23 04:34:55;;;;;;;46.80;9.77;;;9.40;99.90;;;;;;5035345;28;20036;-74
2023/10/23 04:37:21;;;;;;;24.67;6.78;;;9.40;99.90;;;;;;5011998;28;20041;-75
2023/10/23 04:39:46;;;;;;;30.55;7.82;;;9.50;99.90;;;;;;5028914;28;20443;-74
2023/10/23 04:42:12;;;;;;;40.40;7.90;;;9.50;99.90;;;;;;5011991;28;20088;-76
2023/10/23 04:44:37;;;;;;;48.65;9.40;;;9.50;99.90;;;;;;5017236;28;20076;-75
2023/10/23 04:47:03;;;;;;;33.40;7.57;;;9.60;99.90;;;;;;5013913;28;20041;-74
2023/10/23 04:49:29;;;;;;;58.35;9.82;;;9.60;99.90;;;;;;5011650;28;20052;-74
2023/10/23 04:51:54;;;;;;;57.00;9.18;;;9.70;99.90;;;;;;5006189;28;20474;-75
2023/10/23 04:54:20;;;;;;;42.15;8.63;;;9.70;99.90;;;;;;5002200;28;20133;-76
2023/10/23 04:56:46;;;;;;;67.10;8.65;;;9.70;99.90;;;;;;4998305;28;20029;-74
2023/10/23 04:59:12;;;;;;;50.28;8.85;;;9.70;99.90;;;;;;5022626;28;20021;-75
2023/10/23 05:01:38;;;;;;;21.08;6.25;;;9.70;99.90;;;;;;5025538;28;20037;-74
2023/10/23 05:04:04;;;;;;;29.80;7.43;;;9.80;99.90;;;;;;5009090;28;20060;-75
2023/10/23 05:06:30;;;;;;;67.55;9.85;;;9.80;99.90;;;;;;5006290;28;20052;-75
2023/10/23 05:08:55;;;;;;;45.25;7.82;;;9.80;99.90;;;;;;5011500;28;20041;-74
2023/10/23 05:11:21;;;;;;;38.35;8.10;;;9.80;99.90;;;;;;5007271;28;20488;-74
2023/10/23 05:13:47;;;;;;;53.60;9.82;;;9.80;99.90;;;;;;5009798;28;20037;-74
2023/10/23 05:16:13;;;;;;;22.38;6.35;;;9.90;99.90;;;;;;5024622;28;20132;-73
2023/10/23 05:18:39;;;;;;;34.75;7.93;;;9.90;99.90;;;;;;5007093;28;20045;-74
2023/10/23 05:21:09;;;;;;;45.97;7.80;;;9.80;99.90;;;;;;5006832;28;20475;-75
2023/10/23 05:23:39;;;;;;;29.52;7.57;;;9.80;99.90;;;;;;5026821;28;20583;-74
2023/10/23 05:26:05;;;;;;;24.38;6.18;;;9.80;99.90;;;;;;5006785;28;20616;-74
2023/10/23 05:28:31;;;;;;;60.35;10.52;;;9.80;99.90;;;;;;5005674;28;20159;-74
2023/10/23 05:30:57;;;;;;;40.88;8.02;;;9.80;99.90;;;;;;5011118;28;20025;-73
2023/10/23 05:33:23;;;;;;;30.17;6.25;;;9.80;99.90;;;;;;5008114;28;20112;-74
2023/10/23 05:35:49;;;;;;;42.92;8.88;;;9.90;99.90;;;;;;5009659;28;20030;-75
2023/10/23 05:38:14;;;;;;;33.50;7.60;;;9.80;99.90;;;;;;5000922;28;20041;-76
2023/10/23 05:40:40;;;;;;;57.28;10.05;;;9.90;99.90;;;;;;5022875;28;20050;-76
2023/10/23 05:43:05;;;;;;;42.38;7.45;;;9.90;99.90;;;;;;5020661;28;20040;-75
2023/10/23 05:45:31;;;;;;;42.30;8.57;;;9.90;99.90;;;;;;5023092;28;20042;-74
2023/10/23 05:47:56;;;;;;;24.20;6.78;;;9.90;99.90;;;;;;5003061;28;20624;-74
2023/10/23 05:50:22;;;;;;;54.67;9.52;;;9.90;99.90;;;;;;5007650;28;20167;-75
2023/10/23 05:52:48;;;;;;;43.55;8.45;;;9.90;99.90;;;;;;5020526;28;20033;-74
2023/10/23 05:55:13;;;;;;;35.90;7.80;;;9.90;99.90;;;;;;5004456;28;20037;-75
2023/10/23 05:57:39;;;;;;;56.72;11.05;;;9.90;99.90;;;;;;5004933;28;20033;-75
2023/10/23 06:00:08;;;;;;;39.30;8.50;;;9.90;99.90;;;;;;5009594;28;20430;-77
2023/10/23 06:02:34;;;;;;;43.70;8.80;;;9.90;99.90;;;;;;5006645;28;20060;-75
2023/10/23 06:05:00;;;;;;;37.55;8.98;;;10.00;99.90;;;;;;5004479;28;20111;-79
2023/10/23 06:07:25;;;;;;;26.58;7.40;;;10.00;99.90;;;;;;5026633;28;20042;-75
2023/10/23 06:09:51;;;;;;;36.53;9.07;;;9.90;99.90;;;;;;5009065;28;20033;-77
2023/10/23 06:12:17;;;;;;;21.95;7.30;;;10.00;99.90;;;;;;5010446;28;20032;-76
2023/10/23 06:14:43;;;;;;;34.92;8.18;;;10.00;99.90;;;;;;5022231;28;20034;-76
2023/10/23 06:17:08;;;;;;;30.40;7.60;;;10.00;99.90;;;;;;5008065;28;20034;-74
2023/10/23 06:19:34;;;;;;;35.85;7.78;;;10.10;99.90;;;;;;5001271;28;20038;-74
2023/10/23 06:21:59;;;;;;;20.38;7.35;;;10.00;99.90;;;;;;5004251;28;20038;-76
2023/10/23 06:24:26;;;;;;;29.17;7.65;;;10.00;99.90;;;;;;5001332;28;20399;-75
2023/10/23 06:26:52;;;;;;;24.75;7.03;;;10.10;99.90;;;;;;5002330;28;20021;-74
2023/10/23 06:29:17;;;;;;;111.95;14.55;;;10.00;99.90;;;;;;5003930;28;20498;-74
2023/10/23 06:31:43;;;;;;;26.45;6.95;;;10.10;99.90;;;;;;5023912;28;20031;-75
2023/10/23 06:34:08;;;;;;;29.48;6.85;;;10.10;99.90;;;;;;5019292;28;20028;-75
2023/10/23 06:36:35;;;;;;;38.20;8.35;;;10.10;99.90;;;;;;5022397;28;20042;-77
2023/10/23 06:39:01;;;;;;;59.65;9.55;;;10.10;99.90;;;;;;5005167;28;20036;-74
2023/10/23 06:41:26;;;;;;;22.88;7.22;;;10.10;99.90;;;;;;5004605;28;20026;-74
2023/10/23 06:43:52;;;;;;;19.52;6.55;;;10.10;99.90;;;;;;5008408;28;20252;-75
2023/10/23 06:46:17;;;;;;;43.72;8.10;;;10.10;99.90;;;;;;5025287;28;20445;-74
2023/10/23 06:48:46;;;;;;;24.10;7.70;;;10.10;99.90;;;;;;5006994;28;20114;-74
2023/10/23 06:51:13;;;;;;;32.35;8.25;;;10.10;99.90;;;;;;5006249;28;20112;-73
2023/10/23 06:53:39;;;;;;;22.98;7.10;;;10.10;99.90;;;;;;5003942;28;20161;-74
2023/10/23 06:56:05;;;;;;;33.45;8.25;;;10.10;99.90;;;;;;5008359;28;20068;-73
2023/10/23 06:58:30;;;;;;;47.10;8.73;;;10.10;99.90;;;;;;5019353;28;20041;-75
2023/10/23 07:00:56;;;;;;;33.50;7.28;;;10.10;99.90;;;;;;4999423;28;20387;-74
2023/10/23 07:03:21;;;;;;;44.38;9.57;;;10.20;99.90;;;;;;5001973;28;20030;-73
2023/10/23 07:05:47;;;;;;;32.42;7.22;;;10.10;99.90;;;;;;5010651;28;20045;-73
2023/10/23 07:08:13;;;;;;;25.88;7.10;;;10.20;99.90;;;;;;4999528;28;20137;-74
2023/10/23 07:10:39;;;;;;;29.27;8.30;;;10.20;99.90;;;;;;5020062;28;20075;-72
2023/10/23 07:13:04;;;;;;;36.83;8.68;;;10.20;99.90;;;;;;5008191;28;20554;-73
2023/10/23 07:15:34;;;;;;;41.97;8.82;;;10.20;99.90;;;;;;5006867;28;20050;-74
2023/10/23 07:18:00;;;;;;;42.92;7.63;;;10.20;99.90;;;;;;5004879;28;20124;-73
2023/10/23 07:20:25;;;;;;;71.20;8.02;;;10.20;99.90;;;;;;5016909;28;20128;-74
2023/10/23 07:22:51;;;;;;;13.32;5.85;;;10.20;99.90;;;;;;5003525;28;20725;-74
2023/10/23 07:25:16;;;;;;;44.05;6.85;;;10.10;99.90;;;;;;5019239;28;20044;-72
2023/10/23 07:27:48;;;;;;;47.05;8.57;;;10.10;99.90;;;;;;5008037;28;20065;-75
2023/10/23 07:30:14;;;;;;;51.30;9.05;;;10.10;99.90;;;;;;5025856;28;20030;-75
2023/10/23 07:32:40;;;;;;;65.35;10.50;;;10.10;99.90;;;;;;5009586;28;20087;-76
2023/10/23 07:35:08;;;;;;;32.42;8.40;;;10.10;99.90;;;;;;5025702;28;20042;-75
2023/10/23 07:37:33;;;;;;;29.50;7.53;;;10.10;99.90;;;;;;5011969;28;20042;-74
2023/10/23 07:40:04;;;;;;;24.92;8.07;;;10.10;99.90;;;;;;5013817;28;20025;-75
2023/10/23 07:42:30;;;;;;;40.15;8.95;;;10.20;99.90;;;;;;5002461;28;20104;-75
2023/10/23 07:44:56;;;;;;;29.83;7.93;;;10.20;99.90;;;;;;5009704;28;20669;-74
2023/10/23 07:47:21;;;;;;;35.90;9.30;;;10.20;99.90;;;;;;5007567;28;20632;-72
2023/10/23 07:49:47;;;;;;;33.58;8.80;;;10.20;99.90;;;;;;5008067;28;20445;-75
2023/10/23 07:52:12;;;;;;;25.23;8.18;;;10.30;99.90;;;;;;5009831;28;20095;-76
2023/10/23 07:54:38;;;;;;;29.65;7.78;;;10.40;99.90;;;;;;5006023;28;20018;-76
2023/10/23 07:57:04;;;;;;;35.55;9.02;;;10.50;99.90;;;;;;5006791;28;20034;-76
2023/10/23 07:59:29;;;;;;;22.67;8.85;;;10.50;99.90;;;;;;5001821;28;20041;-76
2023/10/23 08:01:56;;;;;;;41.00;9.70;;;10.50;99.90;;;;;;5003381;28;20815;-75
2023/10/23 08:04:22;;;;;;;28.80;8.57;;;10.50;99.90;;;;;;5009270;28;20399;-73
2023/10/23 08:06:47;;;;;;;37.03;9.55;;;10.50;99.90;;;;;;5001989;28;20038;-74
2023/10/23 08:09:13;;;;;;;38.30;9.93;;;10.60;99.90;;;;;;5004329;28;20038;-75
2023/10/23 08:11:38;;;;;;;38.85;10.07;;;10.60;99.90;;;;;;5010549;28;20052;-76
2023/10/23 08:14:04;;;;;;;30.65;10.30;;;10.60;99.90;;;;;;5010549;28;20037;-74
2023/10/23 08:16:30;;;;;;;37.15;10.23;;;10.60;99.90;;;;;;5006865;28;20577;-74
2023/10/23 08:18:57;;;;;;;35.38;10.50;;;10.70;99.90;;;;;;5012240;28;20057;-76
2023/10/23 08:21:26;;;;;;;29.92;10.63;;;10.70;99.90;;;;;;5009679;28;20061;-76
2023/10/23 08:23:56;;;;;;;31.40;10.27;;;10.70;99.90;;;;;;5005682;28;20120;-73
2023/10/23 08:26:22;;;;;;;31.10;10.20;;;10.70;99.90;;;;;;5028616;28;20430;-74
2023/10/23 08:28:48;;;;;;;41.42;11.77;;;10.80;99.90;;;;;;5025377;28;20045;-74
2023/10/23 08:31:14;;;;;;;37.13;10.27;;;10.80;99.90;;;;;;5011777;28;20489;-72
2023/10/23 08:33:40;;;;;;;35.67;10.43;;;10.80;99.90;;;;;;5022693;28;20057;-76
2023/10/23 08:36:05;;;;;;;39.28;10.18;;;10.80;99.90;;;;;;5013435;28;20067;-76
2023/10/23 08:38:31;;;;;;;32.58;9.05;;;10.90;99.90;;;;;;5009790;28;20052;-76
2023/10/23 08:40:56;;;;;;;23.67;8.40;;;10.90;99.90;;;;;;5007565;28;20045;-75
2023/10/23 08:43:23;;;;;;;31.30;8.32;;;10.90;99.90;;;;;;5006977;28;20194;-76
2023/10/23 08:45:53;;;;;;;28.92;8.40;;;10.80;99.90;;;;;;5012152;28;20553;-76
2023/10/23 08:48:18;;;;;;;33.10;9.13;;;10.90;99.90;;;;;;5009202;28;20410;-76
2023/10/23 08:50:46;;;;;;;21.00;7.63;;;10.90;99.90;;;;;;5010833;28;20268;-77
2023/10/23 08:53:15;;;;;;;15.95;7.82;;;10.90;99.90;;;;;;5014704;28;20045;-75
2023/10/23 08:55:42;;;;;;;18.60;7.60;;;10.90;99.90;;;;;;5007454;28;20239;-74
2023/10/23 08:58:10;;;;;;;25.98;8.52;;;10.90;99.90;;;;;;5009306;28;20057;-74
2023/10/23 09:00:36;;;;;;;19.75;7.35;;;10.90;99.90;;;;;;5008275;28;20037;-73
2023/10/23 09:03:04;;;;;;;17.98;8.27;;;11.00;99.90;;;;;;5012953;28;20495;-76
2023/10/23 09:05:30;;;;;;;24.40;8.10;;;11.00;99.90;;;;;;5011558;28;20057;-74
2023/10/23 09:07:56;;;;;;;19.33;8.20;;;11.00;99.90;;;;;;5012249;28;20585;-75
2023/10/23 09:10:21;;;;;;;20.23;8.18;;;11.00;99.90;;;;;;5011835;28;20037;-75
2023/10/23 09:12:56;;;;;;;25.08;9.73;;;11.10;99.90;;;;;;5012116;28;24347;-73
2023/10/23 09:15:23;;;;;;;20.52;8.55;;;11.10;99.90;;;;;;5014842;28;20510;-76
2023/10/23 09:17:49;;;;;;;18.48;7.70;;;11.20;99.90;;;;;;5002868;28;20037;-75
2023/10/23 09:20:24;;;;;;;18.27;7.57;;;11.10;99.90;;;;;;5019422;28;20049;-74
2023/10/23 09:22:53;;;;;;;19.98;7.57;;;11.10;99.90;;;;;;5010284;28;20506;-75
2023/10/23 09:25:26;;;;;;;21.15;9.20;;;11.10;99.90;;;;;;5007292;28;20037;-77
2023/10/23 09:27:52;;;;;;;20.90;8.40;;;11.00;99.90;;;;;;5017627;28;20042;-76
2023/10/23 09:30:22;;;;;;;20.65;8.43;;;11.00;99.90;;;;;;5029966;28;20492;-77
2023/10/23 09:32:51;;;;;;;21.30;8.97;;;11.00;99.90;;;;;;5012284;28;22731;-75
2023/10/23 09:35:18;;;;;;;22.77;9.13;;;11.10;99.90;;;;;;5018722;28;20582;-75
2023/10/23 09:37:43;;;;;;;21.92;9.50;;;11.10;99.90;;;;;;5015755;28;20040;-75
2023/10/23 09:40:11;;;;;;;23.20;9.35;;;11.20;99.90;;;;;;5013835;28;20041;-75
2023/10/23 09:42:38;;;;;;;25.45;9.38;;;11.20;99.90;;;;;;4989787;28;20044;-77
2023/10/23 09:45:04;;;;;;;23.13;9.45;;;11.20;99.90;;;;;;5011538;28;20055;-76
2023/10/23 09:47:31;;;;;;;24.60;8.57;;;11.30;99.90;;;;;;5026847;28;20042;-75
2023/10/23 09:49:58;;;;;;;26.48;10.98;;;11.30;99.90;;;;;;5005779;28;20045;-77
2023/10/23 09:52:26;;;;;;;25.83;9.25;;;11.30;99.90;;;;;;5011923;28;20037;-76
2023/10/23 09:55:00;;;;;;;23.10;9.40;;;11.30;99.90;;;;;;5012642;28;20034;-76
2023/10/23 09:57:36;;;;;;;18.70;8.88;;;11.40;99.90;;;;;;5010234;28;20045;-74
2023/10/23 10:00:07;;;;;;;23.60;9.75;;;11.40;99.90;;;;;;5006116;28;20506;-77
2023/10/23 10:02:35;;;;;;;19.73;8.70;;;11.40;99.90;;;;;;5008826;28;20128;-74
2023/10/23 10:05:05;;;;;;;20.08;8.35;;;11.40;99.90;;;;;;5010552;28;20033;-77
2023/10/23 10:07:48;;;;;;;20.70;9.10;;;11.40;99.90;;;;;;5012887;28;20033;-75
2023/10/23 10:10:14;;;;;;;20.33;8.15;;;11.50;99.90;;;;;;5006829;28;20400;-77
2023/10/23 10:12:41;;;;;;;20.23;9.07;;;11.50;99.90;;;;;;5002461;28;20076;-75
2023/10/23 10:15:10;;;;;;;22.13;9.02;;;11.60;99.90;;;;;;5015683;28;20041;-76
2023/10/23 10:17:37;;;;;;;21.88;8.85;;;11.50;99.90;;;;;;5007016;28;20037;-76
2023/10/23 10:20:07;;;;;;;20.42;8.60;;;11.50;99.90;;;;;;5009151;28;20140;-76
2023/10/23 10:22:36;;;;;;;23.52;9.90;;;11.60;99.90;;;;;;5011042;28;20047;-75
2023/10/23 10:25:06;;;;;;;17.00;8.32;;;11.70;99.90;;;;;;5009432;28;20040;-75
2023/10/23 10:27:32;;;;;;;19.55;7.55;;;11.70;99.90;;;;;;5017538;28;20041;-76
2023/10/23 10:30:05;;;;;;;22.77;8.30;;;11.70;99.90;;;;;;5009271;28;20042;-74
2023/10/23 10:32:33;;;;;;;25.10;8.48;;;11.70;99.90;;;;;;5011616;28;20043;-76
2023/10/23 10:35:03;;;;;;;21.75;7.93;;;11.70;99.90;;;;;;5001067;28;20029;-77
2023/10/23 10:37:30;;;;;;;22.17;7.75;;;11.80;99.90;;;;;;5008375;28;20037;-76
2023/10/23 10:39:55;;;;;;;18.75;6.78;;;11.80;99.90;;;;;;5010820;28;20041;-77
2023/10/23 10:42:26;;;;;;;23.80;7.35;;;11.90;99.90;;;;;;5015814;28;20037;-76
2023/10/23 10:44:52;;;;;;;19.50;6.82;;;11.90;99.90;;;;;;5007786;28;20044;-77
2023/10/23 10:47:18;;;;;;;22.13;8.63;;;11.90;99.90;;;;;;5011369;28;20037;-74
2023/10/23 10:49:45;;;;;;;16.40;6.90;;;12.00;99.90;;;;;;5011267;28;20398;-76
2023/10/23 10:52:27;;;;;;;21.98;7.25;;;12.10;99.90;;;;;;5027594;28;20030;-76
2023/10/23 10:55:10;;;;;;;21.95;7.90;;;12.10;99.90;;;;;;5017515;28;20037;-75
2023/10/23 10:57:43;;;;;;;18.55;7.72;;;12.00;99.90;;;;;;5024784;28;20041;-76
2023/10/23 11:00:09;;;;;;;16.88;6.85;;;12.20;99.90;;;;;;5008066;28;20037;-76
2023/10/23 11:02:36;;;;;;;20.77;7.25;;;12.10;99.90;;;;;;5008171;28;20033;-75
2023/10/23 11:05:09;;;;;;;16.88;6.82;;;12.10;99.90;;;;;;5011453;28;20048;-76
2023/10/23 11:07:35;;;;;;;12.13;5.82;;;12.10;99.90;;;;;;5006014;28;20038;-76
2023/10/23 11:10:01;;;;;;;16.20;6.50;;;12.10;99.90;;;;;;5009806;28;20033;-77
2023/10/23 11:12:26;;;;;;;16.77;6.18;;;12.10;99.90;;;;;;5014784;28;20041;-77
2023/10/23 11:14:52;;;;;;;15.00;6.68;;;12.10;99.90;;;;;;5014039;28;20029;-77
2023/10/23 11:17:18;;;;;;;16.95;7.00;;;12.20;99.90;;;;;;5028947;28;20069;-76
2023/10/23 11:19:43;;;;;;;13.48;5.68;;;12.20;99.90;;;;;;5009133;28;20033;-76
2023/10/23 11:22:14;;;;;;;15.48;5.70;;;12.30;99.90;;;;;;5029700;28;20087;-77
2023/10/23 11:24:40;;;;;;;12.75;6.15;;;12.30;99.90;;;;;;5024517;28;20073;-76
2023/10/23 11:27:07;;;;;;;18.25;6.25;;;12.30;99.90;;;;;;5016353;28;20116;-77
2023/10/23 11:29:43;;;;;;;11.07;5.50;;;12.30;99.90;;;;;;5013344;28;20052;-76
2023/10/23 11:32:11;;;;;;;16.58;5.28;;;12.30;99.90;;;;;;5011979;28;20029;-75
2023/10/23 11:34:37;;;;;;;15.63;5.43;;;12.20;99.90;;;;;;5028737;28;20040;-77
2023/10/23 11:37:04;;;;;;;10.68;5.88;;;12.20;99.90;;;;;;5010278;28;20025;-75
2023/10/23 11:39:31;;;;;;;12.20;5.63;;;12.20;99.90;;;;;;5011795;28;20118;-76
2023/10/23 11:41:58;;;;;;;14.90;6.20;;;12.20;99.90;;;;;;5005159;28;20033;-77
2023/10/23 11:44:27;;;;;;;14.77;5.80;;;12.30;99.90;;;;;;5011126;28;20501;-74
2023/10/23 11:47:01;;;;;;;18.40;5.55;;;12.30;99.90;;;;;;5004840;28;20030;-76
2023/10/23 11:49:27;;;;;;;13.38;5.32;;;12.40;99.90;;;;;;5006430;28;20441;-77
2023/10/23 11:51:55;;;;;;;14.20;5.90;;;12.40;99.90;;;;;;5011475;28;20030;-77
2023/10/23 11:54:24;;;;;;;15.80;6.40;;;12.40;99.90;;;;;;5007373;28;20025;-77
2023/10/23 11:56:49;;;;;;;16.63;5.72;;;12.40;99.90;;;;;;5029189;28;20041;-76
2023/10/23 11:59:19;;;;;;;14.10;6.45;;;12.40;99.90;;;;;;5011845;28;20041;-75
2023/10/23 12:01:46;;;;;;;10.43;5.07;;;12.50;99.90;;;;;;5011313;28;20041;-77
2023/10/23 12:04:12;;;;;;;13.80;5.95;;;12.50;99.90;;;;;;5008012;28;20075;-77
2023/10/23 12:06:39;;;;;;;11.10;5.43;;;12.60;99.90;;;;;;5013742;28;20049;-74
2023/10/23 12:09:06;;;;;;;14.35;5.03;;;12.60;99.90;;;;;;5012553;28;20048;-75
2023/10/23 12:11:33;;;;;;;13.05;5.25;;;12.70;99.90;;;;;;5008344;28;20061;-76
2023/10/23 12:13:59;;;;;;;8.25;4.78;;;12.70;99.90;;;;;;5014035;28;20049;-75
2023/10/23 12:16:28;;;;;;;12.43;3.92;;;12.70;99.90;;;;;;5016766;28;20056;-77
2023/10/23 12:18:54;;;;;;;9.13;3.92;;;12.70;99.90;;;;;;5013345;28;20033;-77
2023/10/23 12:21:20;;;;;;;9.18;3.63;;;12.70;99.90;;;;;;5016033;28;20029;-77
2023/10/23 12:23:46;;;;;;;12.60;4.18;;;12.70;99.90;;;;;;5026021;28;20427;-76
2023/10/23 12:26:12;;;;;;;7.97;3.40;;;12.70;99.90;;;;;;5014263;28;20032;-76
2023/10/23 12:28:38;;;;;;;8.88;3.88;;;12.80;99.90;;;;;;5012678;28;20061;-72
2023/10/23 12:31:06;;;;;;;10.05;3.40;;;12.90;99.90;;;;;;5016212;28;20467;-73
2023/10/23 12:33:32;;;;;;;9.07;3.45;;;13.00;99.90;;;;;;5008622;28;20034;-75
2023/10/23 12:36:00;;;;;;;8.98;3.78;;;13.00;99.90;;;;;;5011682;28;20506;-75
2023/10/23 12:38:26;;;;;;;15.93;5.07;;;13.10;99.90;;;;;;5011293;28;20041;-72
2023/10/23 12:40:52;;;;;;;9.00;3.80;;;13.10;99.90;;;;;;5011037;28;20049;-74
2023/10/23 12:43:18;;;;;;;8.80;3.60;;;13.10;99.90;;;;;;5010602;28;20072;-75